sensor_id;sensor_type;location;lat;lon;timestamp;P1;durP1;ratioP1;P2;durP2;ratioP2
20283;SDS011;10301;50.832;4.080;2022-10-19T00:01:31;15.93;;;7.38;;
20283;SDS011;10301;50.832;4.080;2022-10-19T00:03:57;16.52;;;7.18;;
20283;SDS011;10301;50.832;4.080;2022-10-19T00:06:29;16.60;;;6.80;;
20283;SDS011;10301;50.832;4.080;2022-10-19T00:08:57;15.93;;;6.38;;
20283;SDS011;10301;50.832;4.080;2022-10-19T00:11:28;14.43;;;7.30;;
20283;SDS011;10301;50.832;4.080;2022-10-19T00:13:55;16.10;;;6.32;;
20283;SDS011;10301;50.832;4.080;2022-10-19T00:16:23;13.98;;;6.75;;
20283;SDS011;10301;50.832;4.080;2022-10-19T00:18:50;17.23;;;6.35;;
20283;SDS011;10301;50.832;4.080;2022-10-19T00:21:16;17.23;;;6.88;;
20283;SDS011;10301;50.832;4.080;2022-10-19T00:23:43;15.85;;;6.88;;
20283;SDS011;10301;50.832;4.080;2022-10-19T00:26:10;19.42;;;7.07;;
20283;SDS011;10301;50.832;4.080;2022-10-19T00:28:36;14.15;;;6.47;;
20283;SDS011;10301;50.832;4.080;2022-10-19T00:31:06;13.15;;;6.72;;
20283;SDS011;10301;50.832;4.080;2022-10-19T00:33:42;15.20;;;7.63;;
20283;SDS011;10301;50.832;4.080;2022-10-19T00:38:47;16.40;;;7.25;;
20283;SDS011;10301;50.832;4.080;2022-10-19T00:41:14;15.35;;;6.85;;
20283;SDS011;10301;50.832;4.080;2022-10-19T00:46:26;17.63;;;7.68;;
20283;SDS011;10301;50.832;4.080;2022-10-19T00:48:54;20.02;;;7.22;;
20283;SDS011;10301;50.832;4.080;2022-10-19T00:51:25;14.88;;;7.05;;
20283;SDS011;10301;50.832;4.080;2022-10-19T00:53:52;16.75;;;7.32;;
20283;SDS011;10301;50.832;4.080;2022-10-19T00:56:18;15.05;;;6.85;;
20283;SDS011;10301;50.832;4.080;2022-10-19T00:58:44;16.90;;;7.65;;
20283;SDS011;10301;50.832;4.080;2022-10-19T01:01:12;16.25;;;8.02;;
20283;SDS011;10301;50.832;4.080;2022-10-19T01:03:40;12.38;;;6.57;;
20283;SDS011;10301;50.832;4.080;2022-10-19T01:06:07;19.73;;;6.90;;
20283;SDS011;10301;50.832;4.080;2022-10-19T01:08:33;13.90;;;7.10;;
20283;SDS011;10301;50.832;4.080;2022-10-19T01:11:03;15.35;;;7.30;;
20283;SDS011;10301;50.832;4.080;2022-10-19T01:13:38;16.70;;;6.97;;
20283;SDS011;10301;50.832;4.080;2022-10-19T01:16:24;18.58;;;7.13;;
20283;SDS011;10301;50.832;4.080;2022-10-19T01:19:17;16.45;;;7.03;;
20283;SDS011;10301;50.832;4.080;2022-10-19T01:22:03;13.38;;;7.15;;
20283;SDS011;10301;50.832;4.080;2022-10-19T01:27:37;17.52;;;6.15;;
20283;SDS011;10301;50.832;4.080;2022-10-19T01:32:57;12.98;;;6.10;;
20283;SDS011;10301;50.832;4.080;2022-10-19T01:35:35;15.68;;;6.05;;
20283;SDS011;10301;50.832;4.080;2022-10-19T01:41:06;17.80;;;5.55;;
20283;SDS011;10301;50.832;4.080;2022-10-19T01:46:35;18.63;;;5.75;;
20283;SDS011;10301;50.832;4.080;2022-10-19T01:49:20;18.52;;;5.90;;
20283;SDS011;10301;50.832;4.080;2022-10-19T01:52:03;14.60;;;6.03;;
20283;SDS011;10301;50.832;4.080;2022-10-19T01:54:33;12.70;;;5.75;;
20283;SDS011;10301;50.832;4.080;2022-10-19T01:57:03;15.55;;;6.20;;
20283;SDS011;10301;50.832;4.080;2022-10-19T01:59:32;22.80;;;6.45;;
20283;SDS011;10301;50.832;4.080;2022-10-19T02:01:59;14.52;;;5.47;;
20283;SDS011;10301;50.832;4.080;2022-10-19T02:04:28;12.55;;;6.25;;
20283;SDS011;10301;50.832;4.080;2022-10-19T02:06:55;16.35;;;6.38;;
20283;SDS011;10301;50.832;4.080;2022-10-19T02:09:21;14.70;;;5.32;;
20283;SDS011;10301;50.832;4.080;2022-10-19T02:11:50;14.15;;;5.90;;
20283;SDS011;10301;50.832;4.080;2022-10-19T02:14:21;15.00;;;5.88;;
20283;SDS011;10301;50.832;4.080;2022-10-19T02:17:01;13.82;;;5.25;;
20283;SDS011;10301;50.832;4.080;2022-10-19T02:19:38;11.82;;;6.03;;
20283;SDS011;10301;50.832;4.080;2022-10-19T02:22:05;11.60;;;5.50;;
20283;SDS011;10301;50.832;4.080;2022-10-19T02:24:31;15.45;;;6.15;;
20283;SDS011;10301;50.832;4.080;2022-10-19T02:26:57;16.25;;;5.82;;
20283;SDS011;10301;50.832;4.080;2022-10-19T02:29:24;13.55;;;5.55;;
20283;SDS011;10301;50.832;4.080;2022-10-19T02:31:51;13.18;;;5.95;;
20283;SDS011;10301;50.832;4.080;2022-10-19T02:34:17;16.50;;;5.75;;
20283;SDS011;10301;50.832;4.080;2022-10-19T02:36:42;20.25;;;6.07;;
20283;SDS011;10301;50.832;4.080;2022-10-19T02:39:08;13.63;;;5.65;;
20283;SDS011;10301;50.832;4.080;2022-10-19T02:41:54;15.88;;;5.95;;
20283;SDS011;10301;50.832;4.080;2022-10-19T02:44:40;15.25;;;6.07;;
20283;SDS011;10301;50.832;4.080;2022-10-19T02:47:17;16.00;;;6.10;;
20283;SDS011;10301;50.832;4.080;2022-10-19T02:49:49;16.33;;;5.68;;
20283;SDS011;10301;50.832;4.080;2022-10-19T02:52:16;16.35;;;6.32;;
20283;SDS011;10301;50.832;4.080;2022-10-19T02:54:43;15.68;;;6.30;;
20283;SDS011;10301;50.832;4.080;2022-10-19T02:57:17;17.92;;;6.80;;
20283;SDS011;10301;50.832;4.080;2022-10-19T02:59:47;18.73;;;6.40;;
20283;SDS011;10301;50.832;4.080;2022-10-19T03:02:14;18.10;;;6.88;;
20283;SDS011;10301;50.832;4.080;2022-10-19T03:04:40;14.68;;;6.40;;
20283;SDS011;10301;50.832;4.080;2022-10-19T03:07:07;13.43;;;6.93;;
20283;SDS011;10301;50.832;4.080;2022-10-19T03:09:34;19.27;;;7.45;;
20283;SDS011;10301;50.832;4.080;2022-10-19T03:12:00;12.32;;;6.47;;
20283;SDS011;10301;50.832;4.080;2022-10-19T03:14:25;16.60;;;7.18;;
20283;SDS011;10301;50.832;4.080;2022-10-19T03:16:51;17.88;;;8.18;;
20283;SDS011;10301;50.832;4.080;2022-10-19T03:19:17;16.42;;;6.95;;
20283;SDS011;10301;50.832;4.080;2022-10-19T03:21:42;16.55;;;7.30;;
20283;SDS011;10301;50.832;4.080;2022-10-19T03:24:08;16.38;;;7.55;;
20283;SDS011;10301;50.832;4.080;2022-10-19T03:26:34;18.55;;;7.97;;
20283;SDS011;10301;50.832;4.080;2022-10-19T03:28:59;17.67;;;7.45;;
20283;SDS011;10301;50.832;4.080;2022-10-19T03:31:25;22.10;;;7.70;;
20283;SDS011;10301;50.832;4.080;2022-10-19T03:33:51;20.27;;;8.15;;
20283;SDS011;10301;50.832;4.080;2022-10-19T03:38:42;19.13;;;7.75;;
20283;SDS011;10301;50.832;4.080;2022-10-19T03:41:08;25.45;;;8.30;;
20283;SDS011;10301;50.832;4.080;2022-10-19T03:43:34;20.55;;;7.55;;
20283;SDS011;10301;50.832;4.080;2022-10-19T03:45:59;14.98;;;7.03;;
20283;SDS011;10301;50.832;4.080;2022-10-19T03:48:25;21.48;;;8.00;;
20283;SDS011;10301;50.832;4.080;2022-10-19T03:51:03;20.55;;;7.32;;
20283;SDS011;10301;50.832;4.080;2022-10-19T03:53:30;19.63;;;7.50;;
20283;SDS011;10301;50.832;4.080;2022-10-19T03:55:59;21.48;;;8.57;;
20283;SDS011;10301;50.832;4.080;2022-10-19T03:58:30;16.60;;;8.40;;
20283;SDS011;10301;50.832;4.080;2022-10-19T04:00:57;17.25;;;8.05;;
20283;SDS011;10301;50.832;4.080;2022-10-19T04:03:23;15.85;;;8.10;;
20283;SDS011;10301;50.832;4.080;2022-10-19T04:05:48;18.73;;;8.50;;
20283;SDS011;10301;50.832;4.080;2022-10-19T04:08:14;16.90;;;8.02;;
20283;SDS011;10301;50.832;4.080;2022-10-19T04:10:40;21.58;;;8.52;;
20283;SDS011;10301;50.832;4.080;2022-10-19T04:13:05;16.65;;;8.48;;
20283;SDS011;10301;50.832;4.080;2022-10-19T04:15:31;21.88;;;9.05;;
20283;SDS011;10301;50.832;4.080;2022-10-19T04:17:56;21.05;;;9.07;;
20283;SDS011;10301;50.832;4.080;2022-10-19T04:20:22;22.20;;;8.95;;
20283;SDS011;10301;50.832;4.080;2022-10-19T04:22:48;20.70;;;8.85;;
20283;SDS011;10301;50.832;4.080;2022-10-19T04:25:16;24.60;;;9.40;;
20283;SDS011;10301;50.832;4.080;2022-10-19T04:27:41;19.88;;;8.82;;
20283;SDS011;10301;50.832;4.080;2022-10-19T04:30:07;18.88;;;9.45;;
20283;SDS011;10301;50.832;4.080;2022-10-19T04:32:33;22.80;;;10.50;;
20283;SDS011;10301;50.832;4.080;2022-10-19T04:34:58;22.58;;;9.77;;
20283;SDS011;10301;50.832;4.080;2022-10-19T04:37:24;25.63;;;10.20;;
20283;SDS011;10301;50.832;4.080;2022-10-19T04:39:49;21.67;;;9.93;;
20283;SDS011;10301;50.832;4.080;2022-10-19T04:42:15;25.95;;;10.45;;
20283;SDS011;10301;50.832;4.080;2022-10-19T04:44:41;23.38;;;10.77;;
20283;SDS011;10301;50.832;4.080;2022-10-19T04:47:06;22.35;;;10.07;;
20283;SDS011;10301;50.832;4.080;2022-10-19T04:49:32;21.20;;;10.33;;
20283;SDS011;10301;50.832;4.080;2022-10-19T04:51:57;23.50;;;10.98;;
20283;SDS011;10301;50.832;4.080;2022-10-19T04:54:23;22.23;;;9.97;;
20283;SDS011;10301;50.832;4.080;2022-10-19T04:56:49;20.00;;;10.33;;
20283;SDS011;10301;50.832;4.080;2022-10-19T04:59:14;23.67;;;11.10;;
20283;SDS011;10301;50.832;4.080;2022-10-19T05:01:40;22.85;;;11.43;;
20283;SDS011;10301;50.832;4.080;2022-10-19T05:04:07;25.10;;;11.63;;
20283;SDS011;10301;50.832;4.080;2022-10-19T05:06:34;28.20;;;10.93;;
20283;SDS011;10301;50.832;4.080;2022-10-19T05:08:59;25.55;;;11.13;;
20283;SDS011;10301;50.832;4.080;2022-10-19T05:11:25;24.33;;;10.95;;
20283;SDS011;10301;50.832;4.080;2022-10-19T05:13:51;30.20;;;11.93;;
20283;SDS011;10301;50.832;4.080;2022-10-19T05:16:18;23.87;;;11.23;;
20283;SDS011;10301;50.832;4.080;2022-10-19T05:18:48;20.92;;;11.00;;
20283;SDS011;10301;50.832;4.080;2022-10-19T05:21:15;30.40;;;12.13;;
20283;SDS011;10301;50.832;4.080;2022-10-19T05:23:42;25.50;;;11.53;;
20283;SDS011;10301;50.832;4.080;2022-10-19T05:26:14;25.77;;;12.63;;
20283;SDS011;10301;50.832;4.080;2022-10-19T05:28:41;24.83;;;12.30;;
20283;SDS011;10301;50.832;4.080;2022-10-19T05:31:18;25.43;;;12.30;;
20283;SDS011;10301;50.832;4.080;2022-10-19T05:33:44;27.23;;;12.20;;
20283;SDS011;10301;50.832;4.080;2022-10-19T05:38:38;25.77;;;12.30;;
20283;SDS011;10301;50.832;4.080;2022-10-19T05:41:04;25.83;;;12.80;;
20283;SDS011;10301;50.832;4.080;2022-10-19T05:43:30;27.27;;;12.33;;
20283;SDS011;10301;50.832;4.080;2022-10-19T05:45:56;27.17;;;12.40;;
20283;SDS011;10301;50.832;4.080;2022-10-19T05:48:21;25.45;;;12.40;;
20283;SDS011;10301;50.832;4.080;2022-10-19T05:50:51;29.67;;;12.45;;
20283;SDS011;10301;50.832;4.080;2022-10-19T05:53:18;26.57;;;13.03;;
20283;SDS011;10301;50.832;4.080;2022-10-19T05:55:43;24.87;;;12.80;;
20283;SDS011;10301;50.832;4.080;2022-10-19T05:58:09;23.83;;;12.50;;
20283;SDS011;10301;50.832;4.080;2022-10-19T06:00:35;30.67;;;13.03;;
20283;SDS011;10301;50.832;4.080;2022-10-19T06:03:00;32.33;;;13.67;;
20283;SDS011;10301;50.832;4.080;2022-10-19T06:05:26;26.33;;;13.03;;
20283;SDS011;10301;50.832;4.080;2022-10-19T06:07:51;30.30;;;13.43;;
20283;SDS011;10301;50.832;4.080;2022-10-19T06:10:17;23.70;;;13.00;;
20283;SDS011;10301;50.832;4.080;2022-10-19T06:12:44;26.27;;;14.03;;
20283;SDS011;10301;50.832;4.080;2022-10-19T06:15:10;30.27;;;12.70;;
20283;SDS011;10301;50.832;4.080;2022-10-19T06:17:36;22.80;;;12.00;;
20283;SDS011;10301;50.832;4.080;2022-10-19T06:20:02;23.53;;;12.57;;
20283;SDS011;10301;50.832;4.080;2022-10-19T06:22:28;26.73;;;12.60;;
20283;SDS011;10301;50.832;4.080;2022-10-19T06:24:54;26.60;;;12.03;;
20283;SDS011;10301;50.832;4.080;2022-10-19T06:27:21;22.17;;;13.17;;
20283;SDS011;10301;50.832;4.080;2022-10-19T06:29:47;29.97;;;13.17;;
20283;SDS011;10301;50.832;4.080;2022-10-19T06:32:12;24.07;;;13.03;;
20283;SDS011;10301;50.832;4.080;2022-10-19T06:34:38;22.07;;;12.07;;
20283;SDS011;10301;50.832;4.080;2022-10-19T06:37:04;30.27;;;13.50;;
20283;SDS011;10301;50.832;4.080;2022-10-19T06:39:29;27.33;;;13.47;;
20283;SDS011;10301;50.832;4.080;2022-10-19T06:41:55;23.47;;;12.80;;
20283;SDS011;10301;50.832;4.080;2022-10-19T06:44:20;32.50;;;13.23;;
20283;SDS011;10301;50.832;4.080;2022-10-19T06:46:46;26.10;;;12.60;;
20283;SDS011;10301;50.832;4.080;2022-10-19T06:49:12;30.23;;;13.03;;
20283;SDS011;10301;50.832;4.080;2022-10-19T06:51:38;28.60;;;13.37;;
20283;SDS011;10301;50.832;4.080;2022-10-19T06:54:04;31.40;;;13.20;;
20283;SDS011;10301;50.832;4.080;2022-10-19T06:56:30;30.27;;;13.25;;
20283;SDS011;10301;50.832;4.080;2022-10-19T06:58:57;28.63;;;13.07;;
20283;SDS011;10301;50.832;4.080;2022-10-19T07:01:23;30.23;;;13.53;;
20283;SDS011;10301;50.832;4.080;2022-10-19T07:03:50;32.83;;;14.13;;
20283;SDS011;10301;50.832;4.080;2022-10-19T07:06:16;23.10;;;13.10;;
20283;SDS011;10301;50.832;4.080;2022-10-19T07:08:43;23.70;;;13.23;;
20283;SDS011;10301;50.832;4.080;2022-10-19T07:11:09;28.50;;;13.60;;
20283;SDS011;10301;50.832;4.080;2022-10-19T07:13:36;28.38;;;13.70;;
20283;SDS011;10301;50.832;4.080;2022-10-19T07:16:06;23.77;;;12.77;;
20283;SDS011;10301;50.832;4.080;2022-10-19T07:18:35;30.05;;;13.90;;
20283;SDS011;10301;50.832;4.080;2022-10-19T07:21:03;26.60;;;13.52;;
20283;SDS011;10301;50.832;4.080;2022-10-19T07:23:31;27.27;;;13.90;;
20283;SDS011;10301;50.832;4.080;2022-10-19T07:26:02;24.00;;;13.27;;
20283;SDS011;10301;50.832;4.080;2022-10-19T07:28:29;29.17;;;14.20;;
20283;SDS011;10301;50.832;4.080;2022-10-19T07:30:55;25.42;;;14.32;;
20283;SDS011;10301;50.832;4.080;2022-10-19T07:33:21;35.72;;;14.43;;
20283;SDS011;10301;50.832;4.080;2022-10-19T07:35:47;23.85;;;13.23;;
20283;SDS011;10301;50.832;4.080;2022-10-19T07:38:12;25.75;;;13.77;;
20283;SDS011;10301;50.832;4.080;2022-10-19T07:40:38;27.25;;;12.90;;
20283;SDS011;10301;50.832;4.080;2022-10-19T07:43:04;29.30;;;13.48;;
20283;SDS011;10301;50.832;4.080;2022-10-19T07:45:30;28.75;;;13.70;;
20283;SDS011;10301;50.832;4.080;2022-10-19T07:47:56;26.67;;;12.93;;
20283;SDS011;10301;50.832;4.080;2022-10-19T07:50:23;23.40;;;12.65;;
20283;SDS011;10301;50.832;4.080;2022-10-19T07:52:51;32.85;;;13.30;;
20283;SDS011;10301;50.832;4.080;2022-10-19T07:55:17;25.30;;;13.02;;
20283;SDS011;10301;50.832;4.080;2022-10-19T07:57:45;22.15;;;11.95;;
20283;SDS011;10301;50.832;4.080;2022-10-19T08:00:12;24.95;;;13.55;;
20283;SDS011;10301;50.832;4.080;2022-10-19T08:02:39;27.20;;;12.70;;
20283;SDS011;10301;50.832;4.080;2022-10-19T08:05:04;29.35;;;12.45;;
20283;SDS011;10301;50.832;4.080;2022-10-19T08:07:34;23.83;;;12.57;;
20283;SDS011;10301;50.832;4.080;2022-10-19T08:09:59;28.70;;;12.57;;
20283;SDS011;10301;50.832;4.080;2022-10-19T08:12:25;23.38;;;12.93;;
20283;SDS011;10301;50.832;4.080;2022-10-19T08:14:52;27.23;;;13.48;;
20283;SDS011;10301;50.832;4.080;2022-10-19T08:17:17;25.48;;;12.35;;
20283;SDS011;10301;50.832;4.080;2022-10-19T08:19:44;24.52;;;11.98;;
20283;SDS011;10301;50.832;4.080;2022-10-19T08:22:10;25.55;;;12.38;;
20283;SDS011;10301;50.832;4.080;2022-10-19T08:24:36;29.20;;;13.38;;
20283;SDS011;10301;50.832;4.080;2022-10-19T08:27:01;21.90;;;11.50;;
20283;SDS011;10301;50.832;4.080;2022-10-19T08:29:27;17.92;;;11.32;;
20283;SDS011;10301;50.832;4.080;2022-10-19T08:31:53;25.30;;;12.43;;
20283;SDS011;10301;50.832;4.080;2022-10-19T08:34:19;23.42;;;11.63;;
20283;SDS011;10301;50.832;4.080;2022-10-19T08:36:45;24.60;;;11.55;;
20283;SDS011;10301;50.832;4.080;2022-10-19T08:39:10;28.83;;;11.98;;
20283;SDS011;10301;50.832;4.080;2022-10-19T08:47:02;23.65;;;11.02;;
20283;SDS011;10301;50.832;4.080;2022-10-19T08:49:32;18.70;;;10.90;;
20283;SDS011;10301;50.832;4.080;2022-10-19T08:52:03;22.83;;;12.05;;
20283;SDS011;10301;50.832;4.080;2022-10-19T08:54:49;21.10;;;11.07;;
20283;SDS011;10301;50.832;4.080;2022-10-19T08:59:45;19.98;;;10.95;;
20283;SDS011;10301;50.832;4.080;2022-10-19T09:04:54;21.83;;;10.10;;
20283;SDS011;10301;50.832;4.080;2022-10-19T09:07:25;24.88;;;10.95;;
20283;SDS011;10301;50.832;4.080;2022-10-19T09:09:56;24.40;;;10.68;;
20283;SDS011;10301;50.832;4.080;2022-10-19T09:13:11;22.00;;;10.73;;
20283;SDS011;10301;50.832;4.080;2022-10-19T09:15:22;20.70;;;11.32;;
20283;SDS011;10301;50.832;4.080;2022-10-19T09:18:04;20.42;;;10.40;;
20283;SDS011;10301;50.832;4.080;2022-10-19T09:20:35;21.80;;;11.63;;
20283;SDS011;10301;50.832;4.080;2022-10-19T09:23:13;21.17;;;10.40;;
20283;SDS011;10301;50.832;4.080;2022-10-19T09:26:02;18.13;;;10.40;;
20283;SDS011;10301;50.832;4.080;2022-10-19T09:28:32;17.95;;;10.15;;
20283;SDS011;10301;50.832;4.080;2022-10-19T09:31:00;22.45;;;11.30;;
20283;SDS011;10301;50.832;4.080;2022-10-19T09:33:27;22.35;;;12.02;;
20283;SDS011;10301;50.832;4.080;2022-10-19T09:35:57;22.70;;;11.40;;
20283;SDS011;10301;50.832;4.080;2022-10-19T09:38:26;19.70;;;10.15;;
20283;SDS011;10301;50.832;4.080;2022-10-19T09:40:52;20.05;;;10.68;;
20283;SDS011;10301;50.832;4.080;2022-10-19T09:43:18;22.63;;;11.50;;
20283;SDS011;10301;50.832;4.080;2022-10-19T09:45:47;24.15;;;10.82;;
20283;SDS011;10301;50.832;4.080;2022-10-19T09:48:25;23.45;;;11.30;;
20283;SDS011;10301;50.832;4.080;2022-10-19T09:51:11;21.30;;;11.27;;
20283;SDS011;10301;50.832;4.080;2022-10-19T09:53:42;20.92;;;11.45;;
20283;SDS011;10301;50.832;4.080;2022-10-19T09:56:16;19.83;;;11.25;;
20283;SDS011;10301;50.832;4.080;2022-10-19T09:58:47;24.52;;;11.70;;
20283;SDS011;10301;50.832;4.080;2022-10-19T10:04:07;22.17;;;10.98;;
20283;SDS011;10301;50.832;4.080;2022-10-19T10:06:42;22.83;;;11.70;;
20283;SDS011;10301;50.832;4.080;2022-10-19T10:09:14;24.50;;;11.73;;
20283;SDS011;10301;50.832;4.080;2022-10-19T10:11:48;24.45;;;11.18;;
20283;SDS011;10301;50.832;4.080;2022-10-19T10:16:44;21.10;;;10.27;;
20283;SDS011;10301;50.832;4.080;2022-10-19T10:19:11;19.33;;;10.90;;
20283;SDS011;10301;50.832;4.080;2022-10-19T10:24:20;23.45;;;10.85;;
20283;SDS011;10301;50.832;4.080;2022-10-19T10:26:54;19.08;;;10.93;;
20283;SDS011;10301;50.832;4.080;2022-10-19T10:29:24;20.50;;;10.65;;
20283;SDS011;10301;50.832;4.080;2022-10-19T10:31:54;20.77;;;11.00;;
20283;SDS011;10301;50.832;4.080;2022-10-19T10:37:03;19.48;;;9.63;;
20283;SDS011;10301;50.832;4.080;2022-10-19T10:39:31;23.20;;;9.93;;
20283;SDS011;10301;50.832;4.080;2022-10-19T10:42:04;21.13;;;10.27;;
20283;SDS011;10301;50.832;4.080;2022-10-19T10:44:35;20.13;;;10.23;;
20283;SDS011;10301;50.832;4.080;2022-10-19T10:47:03;22.58;;;11.05;;
20283;SDS011;10301;50.832;4.080;2022-10-19T10:49:34;20.40;;;10.02;;
20283;SDS011;10301;50.832;4.080;2022-10-19T10:52:05;21.42;;;10.85;;
20283;SDS011;10301;50.832;4.080;2022-10-19T10:54:33;22.75;;;10.23;;
20283;SDS011;10301;50.832;4.080;2022-10-19T10:59:38;22.60;;;10.82;;
20283;SDS011;10301;50.832;4.080;2022-10-19T11:10:33;21.65;;;10.35;;
20283;SDS011;10301;50.832;4.080;2022-10-19T11:13:07;19.63;;;11.35;;
20283;SDS011;10301;50.832;4.080;2022-10-19T11:18:33;24.48;;;10.32;;
20283;SDS011;10301;50.832;4.080;2022-10-19T11:21:03;30.83;;;11.88;;
20283;SDS011;10301;50.832;4.080;2022-10-19T11:32:00;20.98;;;10.85;;
20283;SDS011;10301;50.832;4.080;2022-10-19T11:56:18;18.92;;;10.25;;
20283;SDS011;10301;50.832;4.080;2022-10-19T12:12:43;20.58;;;9.57;;
20283;SDS011;10301;50.832;4.080;2022-10-19T12:17:39;19.85;;;9.50;;
20283;SDS011;10301;50.832;4.080;2022-10-19T12:20:19;19.70;;;9.95;;
20283;SDS011;10301;50.832;4.080;2022-10-19T12:22:50;19.73;;;10.57;;
20283;SDS011;10301;50.832;4.080;2022-10-19T12:25:16;20.80;;;10.60;;
20283;SDS011;10301;50.832;4.080;2022-10-19T12:27:43;21.10;;;10.68;;
20283;SDS011;10301;50.832;4.080;2022-10-19T12:32:55;21.83;;;10.50;;
20283;SDS011;10301;50.832;4.080;2022-10-19T12:38:49;23.80;;;11.05;;
20283;SDS011;10301;50.832;4.080;2022-10-19T12:41:21;24.98;;;10.50;;
20283;SDS011;10301;50.832;4.080;2022-10-19T12:47:07;19.15;;;10.93;;
20283;SDS011;10301;50.832;4.080;2022-10-19T12:52:15;21.08;;;11.13;;
20283;SDS011;10301;50.832;4.080;2022-10-19T12:57:40;19.70;;;11.48;;
20283;SDS011;10301;50.832;4.080;2022-10-19T13:03:12;16.60;;;10.05;;
20283;SDS011;10301;50.832;4.080;2022-10-19T13:05:40;16.88;;;10.10;;
20283;SDS011;10301;50.832;4.080;2022-10-19T13:08:06;22.02;;;10.88;;
20283;SDS011;10301;50.832;4.080;2022-10-19T13:10:33;20.75;;;10.55;;
20283;SDS011;10301;50.832;4.080;2022-10-19T13:12:59;21.45;;;10.95;;
20283;SDS011;10301;50.832;4.080;2022-10-19T13:18:01;17.55;;;10.00;;
20283;SDS011;10301;50.832;4.080;2022-10-19T13:25:37;22.02;;;10.73;;
20283;SDS011;10301;50.832;4.080;2022-10-19T13:38:41;19.58;;;9.52;;
20283;SDS011;10301;50.832;4.080;2022-10-19T14:06:32;20.85;;;10.05;;
20283;SDS011;10301;50.832;4.080;2022-10-19T14:12:14;16.88;;;8.75;;
20283;SDS011;10301;50.832;4.080;2022-10-19T14:14:51;17.02;;;8.80;;
20283;SDS011;10301;50.832;4.080;2022-10-19T14:17:19;15.57;;;9.10;;
20283;SDS011;10301;50.832;4.080;2022-10-19T14:19:52;23.10;;;8.15;;
20283;SDS011;10301;50.832;4.080;2022-10-19T14:22:25;15.18;;;7.65;;
20283;SDS011;10301;50.832;4.080;2022-10-19T14:25:01;15.65;;;7.60;;
20283;SDS011;10301;50.832;4.080;2022-10-19T14:27:40;17.85;;;7.30;;
20283;SDS011;10301;50.832;4.080;2022-10-19T14:30:06;20.42;;;9.20;;
20283;SDS011;10301;50.832;4.080;2022-10-19T14:32:44;15.63;;;7.50;;
20283;SDS011;10301;50.832;4.080;2022-10-19T14:35:19;20.42;;;9.20;;
20283;SDS011;10301;50.832;4.080;2022-10-19T14:37:47;14.45;;;7.88;;
20283;SDS011;10301;50.832;4.080;2022-10-19T14:42:50;18.33;;;7.72;;
20283;SDS011;10301;50.832;4.080;2022-10-19T14:48:02;15.55;;;7.38;;
20283;SDS011;10301;50.832;4.080;2022-10-19T14:50:43;14.18;;;7.25;;
20283;SDS011;10301;50.832;4.080;2022-10-19T14:56:10;15.30;;;7.93;;
20283;SDS011;10301;50.832;4.080;2022-10-19T14:58:41;16.77;;;7.85;;
20283;SDS011;10301;50.832;4.080;2022-10-19T15:01:14;15.27;;;8.35;;
20283;SDS011;10301;50.832;4.080;2022-10-19T15:03:41;16.90;;;8.38;;
20283;SDS011;10301;50.832;4.080;2022-10-19T15:06:15;18.45;;;9.35;;
20283;SDS011;10301;50.832;4.080;2022-10-19T15:08:48;16.05;;;8.85;;
20283;SDS011;10301;50.832;4.080;2022-10-19T15:11:20;17.63;;;9.02;;
20283;SDS011;10301;50.832;4.080;2022-10-19T15:13:59;18.23;;;8.27;;
20283;SDS011;10301;50.832;4.080;2022-10-19T15:19:31;18.98;;;9.35;;
20283;SDS011;10301;50.832;4.080;2022-10-19T15:24:39;16.38;;;9.93;;
20283;SDS011;10301;50.832;4.080;2022-10-19T15:27:18;17.83;;;9.75;;
20283;SDS011;10301;50.832;4.080;2022-10-19T15:29:59;16.00;;;8.68;;
20283;SDS011;10301;50.832;4.080;2022-10-19T15:32:32;16.77;;;9.75;;
20283;SDS011;10301;50.832;4.080;2022-10-19T15:37:58;20.02;;;9.18;;
20283;SDS011;10301;50.832;4.080;2022-10-19T15:40:28;20.10;;;10.05;;
20283;SDS011;10301;50.832;4.080;2022-10-19T15:43:03;19.90;;;9.10;;
20283;SDS011;10301;50.832;4.080;2022-10-19T15:53:52;15.75;;;9.23;;
20283;SDS011;10301;50.832;4.080;2022-10-19T15:56:19;19.95;;;10.25;;
20283;SDS011;10301;50.832;4.080;2022-10-19T15:58:49;21.63;;;10.68;;
20283;SDS011;10301;50.832;4.080;2022-10-19T16:01:17;20.13;;;10.27;;
20283;SDS011;10301;50.832;4.080;2022-10-19T16:03:51;15.77;;;10.05;;
20283;SDS011;10301;50.832;4.080;2022-10-19T16:06:18;15.95;;;10.80;;
20283;SDS011;10301;50.832;4.080;2022-10-19T16:08:46;21.27;;;11.73;;
20283;SDS011;10301;50.832;4.080;2022-10-19T16:11:12;20.95;;;12.15;;
20283;SDS011;10301;50.832;4.080;2022-10-19T16:13:39;18.90;;;10.70;;
20283;SDS011;10301;50.832;4.080;2022-10-19T16:16:06;19.42;;;10.77;;
20283;SDS011;10301;50.832;4.080;2022-10-19T16:18:34;20.92;;;12.25;;
20283;SDS011;10301;50.832;4.080;2022-10-19T16:20:59;22.88;;;11.90;;
20283;SDS011;10301;50.832;4.080;2022-10-19T16:23:25;21.63;;;12.30;;
20283;SDS011;10301;50.832;4.080;2022-10-19T16:25:51;22.13;;;12.55;;
20283;SDS011;10301;50.832;4.080;2022-10-19T16:28:17;19.92;;;11.43;;
20283;SDS011;10301;50.832;4.080;2022-10-19T16:30:43;19.02;;;11.93;;
20283;SDS011;10301;50.832;4.080;2022-10-19T16:33:16;22.65;;;11.25;;
20283;SDS011;10301;50.832;4.080;2022-10-19T16:35:42;23.85;;;12.35;;
20283;SDS011;10301;50.832;4.080;2022-10-19T16:38:07;21.73;;;11.60;;
20283;SDS011;10301;50.832;4.080;2022-10-19T16:40:33;23.70;;;13.13;;
20283;SDS011;10301;50.832;4.080;2022-10-19T16:42:58;23.00;;;12.93;;
20283;SDS011;10301;50.832;4.080;2022-10-19T16:45:25;21.17;;;13.43;;
20283;SDS011;10301;50.832;4.080;2022-10-19T16:47:54;27.30;;;13.93;;
20283;SDS011;10301;50.832;4.080;2022-10-19T16:50:19;23.98;;;13.85;;
20283;SDS011;10301;50.832;4.080;2022-10-19T16:52:45;21.92;;;13.93;;
20283;SDS011;10301;50.832;4.080;2022-10-19T16:55:11;23.83;;;13.43;;
20283;SDS011;10301;50.832;4.080;2022-10-19T16:57:36;26.10;;;13.88;;
20283;SDS011;10301;50.832;4.080;2022-10-19T17:00:03;24.23;;;14.32;;
20283;SDS011;10301;50.832;4.080;2022-10-19T17:02:30;25.08;;;16.25;;
20283;SDS011;10301;50.832;4.080;2022-10-19T17:04:56;24.70;;;13.77;;
20283;SDS011;10301;50.832;4.080;2022-10-19T17:07:22;26.17;;;14.02;;
20283;SDS011;10301;50.832;4.080;2022-10-19T17:09:48;26.40;;;15.93;;
20283;SDS011;10301;50.832;4.080;2022-10-19T17:12:14;26.85;;;15.77;;
20283;SDS011;10301;50.832;4.080;2022-10-19T17:14:40;29.88;;;15.60;;
20283;SDS011;10301;50.832;4.080;2022-10-19T17:17:07;29.70;;;15.75;;
20283;SDS011;10301;50.832;4.080;2022-10-19T17:19:34;25.35;;;16.70;;
20283;SDS011;10301;50.832;4.080;2022-10-19T17:22:00;27.13;;;17.00;;
20283;SDS011;10301;50.832;4.080;2022-10-19T17:24:27;27.40;;;16.13;;
20283;SDS011;10301;50.832;4.080;2022-10-19T17:26:53;28.58;;;17.48;;
20283;SDS011;10301;50.832;4.080;2022-10-19T17:29:19;25.83;;;17.13;;
20283;SDS011;10301;50.832;4.080;2022-10-19T17:31:46;32.33;;;17.60;;
20283;SDS011;10301;50.832;4.080;2022-10-19T17:34:13;29.95;;;17.35;;
20283;SDS011;10301;50.832;4.080;2022-10-19T17:36:40;28.80;;;17.17;;
20283;SDS011;10301;50.832;4.080;2022-10-19T17:39:10;27.60;;;17.70;;
20283;SDS011;10301;50.832;4.080;2022-10-19T17:41:43;32.60;;;18.08;;
20283;SDS011;10301;50.832;4.080;2022-10-19T17:44:09;26.90;;;17.45;;
20283;SDS011;10301;50.832;4.080;2022-10-19T17:46:35;31.17;;;18.25;;
20283;SDS011;10301;50.832;4.080;2022-10-19T17:49:02;29.70;;;17.80;;